Time;durP1;ratioP1;P1;durP2;ratioP2;P2;SDS_P1;SDS_P2;PMS_P1;PMS_P2;Temp;Humidity;BMP_temperature;BMP_pressure;BME280_temperature;BME280_humidity;BME280_pressure;Samples;Min_cycle;Max_cycle;Signal;HPM_P1;HPM_P2
2021/04/19 00:01:13;;;;;;;47.95;33.55;;;;;;;;;;4974463;28;20026;-53
2021/04/19 00:03:41;;;;;;;60.28;41.17;;;;;;;;;;4974434;28;20050;-54
2021/04/19 00:06:07;;;;;;;47.40;32.17;;;;;;;;;;4974379;28;20038;-54
2021/04/19 00:08:34;;;;;;;25.70;19.00;;;;;;;;;;4974423;28;20450;-54
2021/04/19 00:11:00;;;;;;;56.53;37.63;;;;;;;;;;4956938;28;20031;-54
2021/04/19 00:13:26;;;;;;;28.88;21.42;;;;;;;;;;4974613;28;20479;-53
2021/04/19 00:15:52;;;;;;;37.05;25.02;;;;;;;;;;4974148;28;20110;-49
2021/04/19 00:18:18;;;;;;;52.03;34.08;;;;;;;;;;4974183;28;20037;-51
2021/04/19 00:20:44;;;;;;;25.15;19.17;;;;;;;;;;4974149;28;20468;-52
2021/04/19 00:23:10;;;;;;;42.08;26.48;;;;;;;;;;4974259;28;20041;-55
2021/04/19 00:25:36;;;;;;;26.23;19.67;;;;;;;;;;4974154;28;20027;-51
2021/04/19 00:28:03;;;;;;;66.43;41.45;;;;;;;;;;4974186;28;20027;-55
2021/04/19 00:30:29;;;;;;;15.93;12.20;;;;;;;;;;4974434;28;20041;-50
2021/04/19 00:32:55;;;;;;;33.38;22.98;;;;;;;;;;4974090;28;20027;-52
2021/04/19 00:35:21;;;;;;;39.13;26.38;;;;;;;;;;4974212;28;20034;-51
2021/04/19 00:37:48;;;;;;;49.85;31.50;;;;;;;;;;4974386;28;20019;-56
2021/04/19 00:40:15;;;;;;;22.90;15.63;;;;;;;;;;4973663;28;20085;-59
2021/04/19 00:42:42;;;;;;;36.33;22.73;;;;;;;;;;4974216;28;20026;-58
2021/04/19 00:45:09;;;;;;;43.13;29.17;;;;;;;;;;4974001;28;20030;-60
2021/04/19 00:47:36;;;;;;;34.28;21.75;;;;;;;;;;4974146;28;20387;-58
2021/04/19 00:50:03;;;;;;;48.45;31.45;;;;;;;;;;4973995;28;20031;-58
2021/04/19 00:52:29;;;;;;;40.45;26.90;;;;;;;;;;4974023;28;20472;-59
2021/04/19 00:54:58;;;;;;;24.17;17.52;;;;;;;;;;4973895;28;20108;-58
2021/04/19 00:57:24;;;;;;;64.30;38.97;;;;;;;;;;4974084;28;20458;-58
2021/04/19 00:59:51;;;;;;;34.45;22.73;;;;;;;;;;4974215;28;20034;-60
2021/04/19 01:02:17;;;;;;;61.13;39.75;;;;;;;;;;4973962;28;20114;-57
2021/04/19 01:04:43;;;;;;;45.67;31.17;;;;;;;;;;4976920;28;20102;-57
2021/04/19 01:07:09;;;;;;;47.97;30.73;;;;;;;;;;4977650;28;20035;-56
2021/04/19 01:09:35;;;;;;;28.25;20.23;;;;;;;;;;4977616;28;20029;-58
2021/04/19 01:12:01;;;;;;;38.60;25.45;;;;;;;;;;4977544;28;20510;-57
2021/04/19 01:14:27;;;;;;;35.40;23.73;;;;;;;;;;4977269;28;20114;-59
2021/04/19 01:16:53;;;;;;;26.23;18.25;;;;;;;;;;4960119;28;20130;-58
2021/04/19 01:19:19;;;;;;;21.75;15.50;;;;;;;;;;4977260;28;20491;-58
2021/04/19 01:21:45;;;;;;;40.00;26.88;;;;;;;;;;4977303;28;20077;-59
2021/04/19 01:24:12;;;;;;;60.13;36.92;;;;;;;;;;4977149;28;20035;-58
2021/04/19 01:26:38;;;;;;;37.67;25.52;;;;;;;;;;4977237;28;20019;-58
2021/04/19 01:29:04;;;;;;;43.97;27.95;;;;;;;;;;4959605;28;20038;-58
2021/04/19 01:31:30;;;;;;;55.30;35.58;;;;;;;;;;4977188;28;20383;-59
2021/04/19 01:33:56;;;;;;;76.63;46.65;;;;;;;;;;4976841;28;20035;-60
2021/04/19 01:36:23;;;;;;;74.85;47.55;;;;;;;;;;4977083;28;20444;-59
2021/04/19 01:38:49;;;;;;;49.30;31.55;;;;;;;;;;4976927;28;20046;-58
2021/04/19 01:41:16;;;;;;;55.92;36.13;;;;;;;;;;4959423;28;20026;-58
2021/04/19 01:43:42;;;;;;;31.98;21.70;;;;;;;;;;4976866;28;20058;-58
2021/04/19 01:46:08;;;;;;;45.10;28.65;;;;;;;;;;4976531;28;20038;-59
2021/04/19 01:48:34;;;;;;;34.05;23.20;;;;;;;;;;4976653;28;20479;-57
2021/04/19 01:51:00;;;;;;;70.35;40.78;;;;;;;;;;4976783;28;20042;-58
2021/04/19 01:53:26;;;;;;;52.60;34.00;;;;;;;;;;4976793;28;20026;-58
2021/04/19 01:55:52;;;;;;;40.85;26.48;;;;;;;;;;4976543;28;20055;-58
2021/04/19 01:58:20;;;;;;;41.97;26.92;;;;;;;;;;4976565;28;20468;-58
2021/04/19 02:01:05;;;;;;;47.90;29.45;;;;;;;;;;4976719;28;20046;-57
2021/04/19 02:03:46;;;;;;;41.65;26.15;;;;;;;;;;4976594;28;20033;-58
2021/04/19 02:06:12;;;;;;;57.17;36.72;;;;;;;;;;4976640;28;20035;-59
2021/04/19 02:08:42;;;;;;;44.92;29.00;;;;;;;;;;4976381;28;20038;-59
2021/04/19 02:11:17;;;;;;;39.67;25.25;;;;;;;;;;4976476;28;20037;-59
2021/04/19 02:13:46;;;;;;;47.75;30.52;;;;;;;;;;4976310;28;20026;-60
2021/04/19 02:16:17;;;;;;;52.10;33.90;;;;;;;;;;4976165;28;20522;-59
2021/04/19 02:18:46;;;;;;;23.17;16.88;;;;;;;;;;4976338;28;20031;-59
2021/04/19 02:21:19;;;;;;;22.42;16.48;;;;;;;;;;4976297;28;20031;-59
2021/04/19 02:23:55;;;;;;;25.80;18.50;;;;;;;;;;4976362;28;20055;-59
2021/04/19 02:26:35;;;;;;;36.50;22.58;;;;;;;;;;4976185;28;20674;-59
2021/04/19 02:29:07;;;;;;;24.38;16.73;;;;;;;;;;4976531;28;20127;-60
2021/04/19 02:31:35;;;;;;;30.23;20.58;;;;;;;;;;4976106;28;20023;-58
2021/04/19 02:34:02;;;;;;;24.75;18.02;;;;;;;;;;4958953;28;20118;-58
2021/04/19 02:36:29;;;;;;;22.92;16.30;;;;;;;;;;4976319;28;20444;-59
2021/04/19 02:38:57;;;;;;;21.02;15.52;;;;;;;;;;4976216;28;20034;-57
2021/04/19 02:41:26;;;;;;;18.85;13.90;;;;;;;;;;4976037;28;20023;-60
2021/04/19 02:43:53;;;;;;;22.42;16.23;;;;;;;;;;4976016;28;20035;-58
2021/04/19 02:46:19;;;;;;;25.50;17.05;;;;;;;;;;4975787;28;20533;-59
2021/04/19 02:48:48;;;;;;;18.52;14.00;;;;;;;;;;4975700;28;20076;-60
2021/04/19 02:51:14;;;;;;;16.17;12.63;;;;;;;;;;4975779;28;20030;-59
2021/04/19 02:53:41;;;;;;;20.17;14.73;;;;;;;;;;4975829;28;20031;-57
2021/04/19 02:56:08;;;;;;;16.15;13.75;;;;;;;;;;4975915;28;20109;-60
2021/04/19 02:58:48;;;;;;;16.10;13.05;;;;;;;;;;4975795;28;20086;-59
2021/04/19 03:01:25;;;;;;;15.65;13.50;;;;;;;;;;4975850;28;20062;-59
2021/04/19 03:03:52;;;;;;;13.63;11.98;;;;;;;;;;4975527;28;20030;-59
2021/04/19 03:06:19;;;;;;;18.48;14.20;;;;;;;;;;4975559;28;20026;-59
2021/04/19 03:08:48;;;;;;;18.63;14.32;;;;;;;;;;4975656;28;20478;-59
2021/04/19 03:11:24;;;;;;;16.48;13.73;;;;;;;;;;4975283;28;20094;-59
2021/04/19 03:13:51;;;;;;;17.83;14.68;;;;;;;;;;4975453;28;20133;-57
2021/04/19 03:16:18;;;;;;;13.93;12.40;;;;;;;;;;4975071;28;20050;-59
2021/04/19 03:18:46;;;;;;;14.90;12.70;;;;;;;;;;4975238;28;20030;-58
2021/04/19 03:21:22;;;;;;;14.38;12.30;;;;;;;;;;4975427;28;20066;-59
2021/04/19 03:23:52;;;;;;;15.48;13.07;;;;;;;;;;4975398;28;20058;-59
2021/04/19 03:26:19;;;;;;;19.85;14.95;;;;;;;;;;4974522;28;20038;-59
2021/04/19 03:28:46;;;;;;;15.10;12.88;;;;;;;;;;4975249;28;20113;-57
2021/04/19 03:31:21;;;;;;;16.67;12.88;;;;;;;;;;4974960;28;20022;-57
2021/04/19 03:33:49;;;;;;;18.08;13.20;;;;;;;;;;4974700;28;20085;-59
2021/04/19 03:36:16;;;;;;;16.98;13.27;;;;;;;;;;4975048;28;20034;-59
2021/04/19 03:38:43;;;;;;;16.70;14.15;;;;;;;;;;4975220;28;20388;-59
2021/04/19 03:41:10;;;;;;;15.73;13.10;;;;;;;;;;4974951;28;20066;-57
2021/04/19 03:43:37;;;;;;;15.45;13.43;;;;;;;;;;4974982;28;20118;-59
2021/04/19 03:46:07;;;;;;;15.05;13.40;;;;;;;;;;4974736;28;20070;-59
2021/04/19 03:48:34;;;;;;;16.73;14.35;;;;;;;;;;4974860;28;20394;-59
2021/04/19 03:51:05;;;;;;;15.88;14.18;;;;;;;;;;4974670;28;20474;-59
2021/04/19 03:53:32;;;;;;;17.10;14.47;;;;;;;;;;4974600;28;20039;-58
2021/04/19 03:55:58;;;;;;;19.05;16.10;;;;;;;;;;4974769;28;20751;-59
2021/04/19 03:58:28;;;;;;;16.65;14.10;;;;;;;;;;4974736;28;20551;-60
2021/04/19 04:00:55;;;;;;;16.20;14.48;;;;;;;;;;4974768;28;20097;-59
2021/04/19 04:03:22;;;;;;;17.50;14.05;;;;;;;;;;4974621;28;20034;-60
2021/04/19 04:05:49;;;;;;;16.83;14.07;;;;;;;;;;4974551;28;20159;-60
2021/04/19 04:08:16;;;;;;;17.42;15.05;;;;;;;;;;4974414;28;20065;-60
2021/04/19 04:10:42;;;;;;;17.35;14.38;;;;;;;;;;4974725;28;20026;-60
2021/04/19 04:13:08;;;;;;;16.30;13.90;;;;;;;;;;4974462;28;20031;-60
2021/04/19 04:15:34;;;;;;;16.55;13.68;;;;;;;;;;4974243;28;20521;-60
2021/04/19 04:18:00;;;;;;;16.13;13.25;;;;;;;;;;4974438;28;20062;-59
2021/04/19 04:20:29;;;;;;;17.67;14.25;;;;;;;;;;4974403;28;20023;-61
2021/04/19 04:22:55;;;;;;;16.75;14.45;;;;;;;;;;4974429;28;20416;-61
2021/04/19 04:25:25;;;;;;;19.10;15.40;;;;;;;;;;4974162;28;20489;-59
2021/04/19 04:27:52;;;;;;;21.50;17.73;;;;;;;;;;4974340;28;20031;-60
2021/04/19 04:30:18;;;;;;;22.90;18.33;;;;;;;;;;4974180;28;20033;-61
2021/04/19 04:32:44;;;;;;;24.75;19.42;;;;;;;;;;4974466;28;20033;-60
2021/04/19 04:35:10;;;;;;;24.88;19.88;;;;;;;;;;4974226;28;20489;-60
2021/04/19 04:37:37;;;;;;;31.25;24.83;;;;;;;;;;4975330;28;20118;-60
2021/04/19 04:40:03;;;;;;;35.53;27.25;;;;;;;;;;4978292;28;20083;-59
2021/04/19 04:42:30;;;;;;;53.13;36.28;;;;;;;;;;4977998;28;20467;-60
2021/04/19 04:44:57;;;;;;;49.13;36.63;;;;;;;;;;4960561;28;20395;-60
2021/04/19 04:47:39;;;;;;;30.25;22.05;;;;;;;;;;4978128;28;20030;-61
2021/04/19 04:50:10;;;;;;;33.55;25.35;;;;;;;;;;4977859;28;20384;-61
2021/04/19 04:52:44;;;;;;;33.40;26.08;;;;;;;;;;4977934;28;20489;-61
2021/04/19 04:55:11;;;;;;;45.92;30.88;;;;;;;;;;4977906;28;20546;-59
2021/04/19 04:57:38;;;;;;;40.42;29.17;;;;;;;;;;4978074;28;20027;-61
2021/04/19 05:00:04;;;;;;;29.10;23.88;;;;;;;;;;4977750;28;20030;-59
2021/04/19 05:02:31;;;;;;;56.65;39.63;;;;;;;;;;4960565;28;20096;-60
2021/04/19 05:04:57;;;;;;;53.10;39.75;;;;;;;;;;4977765;28;20467;-60
2021/04/19 05:07:24;;;;;;;51.42;36.67;;;;;;;;;;4977643;28;20033;-59
2021/04/19 05:09:50;;;;;;;46.33;32.90;;;;;;;;;;4977485;28;20034;-59
2021/04/19 05:12:16;;;;;;;36.10;27.27;;;;;;;;;;4977679;28;20093;-60
2021/04/19 05:14:58;;;;;;;42.75;29.77;;;;;;;;;;4977477;28;20058;-59
2021/04/19 05:17:24;;;;;;;35.08;25.02;;;;;;;;;;4977554;28;20097;-60
2021/04/19 05:19:51;;;;;;;35.30;25.35;;;;;;;;;;4977755;28;20073;-57
2021/04/19 05:22:17;;;;;;;28.42;22.30;;;;;;;;;;4977511;28;20029;-59
2021/04/19 05:24:43;;;;;;;35.10;25.50;;;;;;;;;;4977542;28;20483;-58
2021/04/19 05:27:11;;;;;;;27.85;22.45;;;;;;;;;;4977421;28;20030;-57
2021/04/19 05:29:38;;;;;;;38.42;26.85;;;;;;;;;;4977429;28;20483;-58
2021/04/19 05:32:04;;;;;;;31.05;24.35;;;;;;;;;;4977322;28;20460;-58
2021/04/19 05:34:30;;;;;;;33.55;23.48;;;;;;;;;;4959737;28;20403;-58
2021/04/19 05:36:57;;;;;;;34.30;26.25;;;;;;;;;;4977316;28;20029;-58
2021/04/19 05:39:23;;;;;;;34.55;26.20;;;;;;;;;;4977179;28;20428;-58
2021/04/19 05:41:50;;;;;;;42.28;28.60;;;;;;;;;;4977378;28;20054;-58
2021/04/19 05:44:16;;;;;;;41.60;29.98;;;;;;;;;;4976931;28;20039;-58
2021/04/19 05:46:43;;;;;;;40.90;28.80;;;;;;;;;;4976967;28;20023;-59
2021/04/19 05:49:09;;;;;;;41.22;30.73;;;;;;;;;;4976215;28;20058;-57
2021/04/19 05:51:38;;;;;;;42.70;32.22;;;;;;;;;;4977114;28;20031;-58
2021/04/19 05:54:04;;;;;;;44.03;31.92;;;;;;;;;;4976807;28;20035;-58
2021/04/19 05:56:42;;;;;;;45.05;32.63;;;;;;;;;;4976958;28;20106;-58
2021/04/19 05:59:11;;;;;;;46.15;34.30;;;;;;;;;;4976648;28;20046;-58
2021/04/19 06:01:39;;;;;;;48.63;36.13;;;;;;;;;;4976510;28;20081;-59
2021/04/19 06:04:11;;;;;;;45.13;33.50;;;;;;;;;;4976650;28;20061;-58
2021/04/19 06:06:43;;;;;;;46.05;33.72;;;;;;;;;;4976737;28;20452;-59
2021/04/19 06:09:15;;;;;;;44.90;33.67;;;;;;;;;;4976655;28;20031;-57
2021/04/19 06:11:42;;;;;;;49.88;36.08;;;;;;;;;;4976649;28;20481;-59
2021/04/19 06:14:10;;;;;;;53.38;38.28;;;;;;;;;;4958707;28;20059;-57
2021/04/19 06:16:38;;;;;;;49.55;35.72;;;;;;;;;;4976477;28;20035;-61
2021/04/19 06:19:06;;;;;;;53.45;38.22;;;;;;;;;;4976482;28;20027;-58
2021/04/19 06:21:32;;;;;;;53.85;40.03;;;;;;;;;;4976349;28;20030;-60
2021/04/19 06:24:01;;;;;;;53.17;38.55;;;;;;;;;;4976406;28;20026;-61
2021/04/19 06:26:27;;;;;;;54.58;38.67;;;;;;;;;;4976305;28;20042;-61
2021/04/19 06:28:53;;;;;;;51.50;38.90;;;;;;;;;;4976492;28;20427;-60
2021/04/19 06:31:21;;;;;;;50.92;35.92;;;;;;;;;;4976106;28;20102;-61
2021/04/19 06:34:02;;;;;;;54.08;38.13;;;;;;;;;;4975896;28;20031;-60
2021/04/19 06:36:28;;;;;;;56.85;41.35;;;;;;;;;;4976268;28;20375;-60
2021/04/19 06:38:54;;;;;;;59.33;41.13;;;;;;;;;;4976169;28;20075;-61
2021/04/19 06:41:20;;;;;;;55.42;39.65;;;;;;;;;;4975997;28;20050;-59
2021/04/19 06:43:46;;;;;;;50.63;36.15;;;;;;;;;;4975889;28;20035;-59
2021/04/19 06:46:13;;;;;;;52.80;39.00;;;;;;;;;;4975880;28;20058;-62
2021/04/19 06:48:40;;;;;;;54.00;38.25;;;;;;;;;;4975899;28;20542;-60
2021/04/19 06:51:08;;;;;;;53.50;37.28;;;;;;;;;;4975908;28;20118;-61
2021/04/19 06:53:35;;;;;;;50.97;34.65;;;;;;;;;;4975869;28;20078;-62
2021/04/19 06:56:02;;;;;;;47.38;35.28;;;;;;;;;;4975719;28;20471;-62
2021/04/19 06:58:28;;;;;;;70.80;46.17;;;;;;;;;;4975728;28;20025;-61
2021/04/19 07:00:55;;;;;;;70.93;47.42;;;;;;;;;;4974849;28;20027;-61
2021/04/19 07:03:21;;;;;;;81.82;53.42;;;;;;;;;;4975567;28;20022;-61
2021/04/19 07:05:51;;;;;;;60.05;42.15;;;;;;;;;;4975478;28;20089;-62
2021/04/19 07:08:24;;;;;;;77.03;48.95;;;;;;;;;;4975643;28;20148;-61
2021/04/19 07:10:53;;;;;;;92.68;57.00;;;;;;;;;;4975464;28;20062;-61
2021/04/19 07:13:19;;;;;;;61.20;41.50;;;;;;;;;;4975413;28;20384;-63
2021/04/19 07:15:46;;;;;;;83.30;56.25;;;;;;;;;;4975161;28;20055;-62
2021/04/19 07:18:13;;;;;;;70.22;44.85;;;;;;;;;;4975288;28;20475;-62
2021/04/19 07:20:39;;;;;;;68.30;45.72;;;;;;;;;;4975518;28;20145;-60
2021/04/19 07:23:06;;;;;;;73.18;47.95;;;;;;;;;;4975226;28;20380;-60
2021/04/19 07:25:32;;;;;;;110.53;67.60;;;;;;;;;;4975326;28;20033;-61
2021/04/19 07:28:04;;;;;;;59.92;39.47;;;;;;;;;;4975204;28;20035;-61
2021/04/19 07:30:30;;;;;;;54.97;37.75;;;;;;;;;;4957939;28;20026;-63
2021/04/19 07:32:56;;;;;;;51.90;37.70;;;;;;;;;;4975275;28;20454;-61
2021/04/19 07:35:26;;;;;;;51.70;36.47;;;;;;;;;;4974965;28;20042;-61
2021/04/19 07:38:04;;;;;;;49.42;34.65;;;;;;;;;;4975177;28;20019;-62
2021/04/19 07:40:35;;;;;;;63.70;43.65;;;;;;;;;;4974923;28;20031;-61
2021/04/19 07:43:07;;;;;;;60.88;40.63;;;;;;;;;;4975266;28;20387;-62
2021/04/19 07:45:33;;;;;;;82.50;51.25;;;;;;;;;;4974812;28;20038;-61
2021/04/19 07:47:59;;;;;;;50.47;35.10;;;;;;;;;;4974999;28;20019;-63
2021/04/19 07:50:26;;;;;;;49.15;34.55;;;;;;;;;;4974889;28;20061;-62
2021/04/19 07:52:55;;;;;;;62.92;38.85;;;;;;;;;;4974725;28;20019;-61
2021/04/19 07:55:22;;;;;;;48.95;36.65;;;;;;;;;;4974951;28;20039;-61
2021/04/19 07:57:49;;;;;;;41.47;29.70;;;;;;;;;;4975050;28;20019;-61
2021/04/19 08:00:32;;;;;;;45.47;33.35;;;;;;;;;;4975057;28;20078;-62
2021/04/19 08:03:07;;;;;;;43.85;29.42;;;;;;;;;;4974768;28;20027;-59
2021/04/19 08:05:37;;;;;;;41.33;30.65;;;;;;;;;;4974651;28;20025;-61
2021/04/19 08:08:03;;;;;;;50.60;34.65;;;;;;;;;;4974585;28;20023;-60
2021/04/19 08:10:30;;;;;;;50.58;36.28;;;;;;;;;;4974559;28;20488;-58
2021/04/19 08:13:04;;;;;;;90.97;57.28;;;;;;;;;;4974196;28;20494;-60
2021/04/19 08:15:30;;;;;;;51.75;35.40;;;;;;;;;;4974187;28;20133;-61
2021/04/19 08:18:00;;;;;;;46.47;31.40;;;;;;;;;;4974289;28;20041;-61
2021/04/19 08:20:26;;;;;;;60.70;42.22;;;;;;;;;;4974198;28;20022;-61
2021/04/19 08:22:52;;;;;;;46.00;32.33;;;;;;;;;;4974519;28;20102;-59
2021/04/19 08:25:19;;;;;;;51.65;31.30;;;;;;;;;;4973768;28;20019;-55
2021/04/19 08:28:01;;;;;;;42.10;27.90;;;;;;;;;;4974267;28;20117;-61
2021/04/19 08:30:29;;;;;;;69.40;43.97;;;;;;;;;;4974206;28;20424;-60
2021/04/19 08:32:56;;;;;;;46.45;30.80;;;;;;;;;;4974321;28;20029;-62
2021/04/19 08:35:22;;;;;;;37.50;25.95;;;;;;;;;;4974469;28;20041;-58
2021/04/19 08:37:49;;;;;;;48.70;33.05;;;;;;;;;;4974633;28;20052;-62
2021/04/19 08:40:16;;;;;;;101.82;57.90;;;;;;;;;;4974619;28;20442;-48
2021/04/19 08:42:43;;;;;;;74.90;44.45;;;;;;;;;;4974404;28;20026;-53
2021/04/19 08:45:10;;;;;;;40.28;28.17;;;;;;;;;;4974500;28;20038;-53
2021/04/19 08:47:36;;;;;;;54.58;36.20;;;;;;;;;;4957389;28;20027;-60
2021/04/19 08:50:06;;;;;;;51.78;31.83;;;;;;;;;;4973961;28;20038;-60
2021/04/19 08:52:33;;;;;;;93.35;52.65;;;;;;;;;;4956633;28;20031;-59
2021/04/19 08:54:59;;;;;;;51.15;33.47;;;;;;;;;;4974131;28;20035;-54
2021/04/19 08:57:25;;;;;;;62.83;38.53;;;;;;;;;;4974128;28;20023;-61
2021/04/19 08:59:52;;;;;;;73.63;44.75;;;;;;;;;;4974046;28;20098;-62
2021/04/19 09:02:19;;;;;;;59.58;37.80;;;;;;;;;;4973762;28;20227;-56
2021/04/19 09:05:04;;;;;;;38.00;24.45;;;;;;;;;;4973755;28;20033;-53
2021/04/19 09:07:30;;;;;;;60.80;37.10;;;;;;;;;;4974039;28;20539;-58
2021/04/19 09:09:57;;;;;;;42.40;28.15;;;;;;;;;;4973836;28;20030;-56
2021/04/19 09:12:24;;;;;;;76.22;47.33;;;;;;;;;;4973795;28;20030;-51
2021/04/19 09:14:50;;;;;;;46.58;28.20;;;;;;;;;;4973495;28;20053;-57
2021/04/19 09:17:24;;;;;;;63.13;40.67;;;;;;;;;;4973868;28;20027;-58
2021/04/19 09:19:57;;;;;;;47.08;30.98;;;;;;;;;;4973565;28;20365;-53
2021/04/19 09:22:26;;;;;;;46.47;30.60;;;;;;;;;;4973502;28;20035;-52
2021/04/19 09:25:07;;;;;;;29.25;19.42;;;;;;;;;;4975378;28;20019;-52
2021/04/19 09:27:33;;;;;;;;;;;;;;;;;;4977622;28;20387;-57
2021/04/19 09:29:59;;;;;;;55.35;30.10;;;;;;;;;;4977344;28;19906;-58
2021/04/19 09:32:26;;;;;;;41.70;23.35;;;;;;;;;;4977161;28;20038;-57
2021/04/19 09:34:54;;;;;;;30.35;19.42;;;;;;;;;;4976671;28;20039;-57
2021/04/19 09:37:20;;;;;;;38.65;25.17;;;;;;;;;;4977199;28;20023;-56
2021/04/19 09:39:50;;;;;;;29.27;20.83;;;;;;;;;;4976936;28;20033;-56
2021/04/19 09:42:18;;;;;;;36.45;23.92;;;;;;;;;;4976849;28;20101;-58
2021/04/19 09:44:51;;;;;;;29.52;22.35;;;;;;;;;;4976874;28;20109;-58
2021/04/19 09:47:40;;;;;;;36.13;24.23;;;;;;;;;;4976767;28;20023;-59
2021/04/19 09:50:06;;;;;;;32.92;23.58;;;;;;;;;;4969123;28;20046;-57
2021/04/19 09:52:34;;;;;;;43.00;28.17;;;;;;;;;;4976755;28;20114;-57
2021/04/19 09:55:01;;;;;;;47.60;30.60;;;;;;;;;;4959101;28;20391;-58
2021/04/19 09:57:27;;;;;;;43.85;29.40;;;;;;;;;;4976463;28;20057;-57
2021/04/19 09:59:53;;;;;;;43.00;28.17;;;;;;;;;;4976541;28;20061;-57
2021/04/19 10:02:20;;;;;;;51.63;32.03;;;;;;;;;;4959076;28;20030;-52
2021/04/19 10:04:46;;;;;;;46.08;30.23;;;;;;;;;;4976674;28;20019;-56
2021/04/19 10:07:13;;;;;;;52.00;34.00;;;;;;;;;;4976489;28;20026;-59
2021/04/19 10:09:41;;;;;;;57.97;37.63;;;;;;;;;;4976548;28;20023;-57
2021/04/19 10:12:08;;;;;;;56.72;36.38;;;;;;;;;;4976503;28;20537;-54
2021/04/19 10:14:38;;;;;;;50.95;33.45;;;;;;;;;;4976085;28;20105;-55
2021/04/19 10:17:27;;;;;;;52.85;34.45;;;;;;;;;;4976403;28;20031;-54
2021/04/19 10:19:53;;;;;;;61.25;39.78;;;;;;;;;;4976248;28;20494;-56
2021/04/19 10:22:19;;;;;;;43.30;29.88;;;;;;;;;;4976245;28;20027;-56
2021/04/19 10:24:50;;;;;;;61.20;38.95;;;;;;;;;;4976320;28;20035;-54
2021/04/19 10:27:25;;;;;;;52.85;34.80;;;;;;;;;;4976390;28;20027;-55
2021/04/19 10:29:52;;;;;;;63.65;40.45;;;;;;;;;;4976167;28;20491;-54
2021/04/19 10:32:28;;;;;;;60.20;36.05;;;;;;;;;;4976067;28;20038;-51
2021/04/19 10:34:54;;;;;;;63.00;40.38;;;;;;;;;;4976115;28;20475;-56
2021/04/19 10:37:20;;;;;;;50.20;31.70;;;;;;;;;;4972559;28;20476;-54
2021/04/19 10:39:46;;;;;;;78.20;48.80;;;;;;;;;;4975971;28;20033;-55
2021/04/19 10:42:15;;;;;;;68.05;41.30;;;;;;;;;;4975664;28;20035;-56
2021/04/19 10:44:44;;;;;;;73.13;45.03;;;;;;;;;;4975543;28;20122;-55
2021/04/19 10:47:13;;;;;;;64.60;38.10;;;;;;;;;;4975623;28;20023;-56
2021/04/19 10:49:39;;;;;;;49.60;30.98;;;;;;;;;;4975567;28;20027;-55
2021/04/19 10:52:07;;;;;;;56.55;32.67;;;;;;;;;;4975880;28;20030;-56
2021/04/19 10:54:34;;;;;;;43.80;28.83;;;;;;;;;;4975457;28;20049;-57
2021/04/19 10:57:01;;;;;;;54.40;36.17;;;;;;;;;;4975496;28;20035;-57
2021/04/19 10:59:27;;;;;;;80.43;47.88;;;;;;;;;;4975450;28;20538;-54
2021/04/19 11:02:02;;;;;;;68.07;39.83;;;;;;;;;;4975566;28;20395;-51
2021/04/19 11:04:28;;;;;;;62.92;39.38;;;;;;;;;;4975992;28;20023;-51
2021/04/19 11:06:56;;;;;;;60.40;40.25;;;;;;;;;;4975566;28;20023;-55
2021/04/19 11:09:27;;;;;;;42.15;28.38;;;;;;;;;;4975242;28;20066;-58
2021/04/19 11:11:54;;;;;;;63.00;38.47;;;;;;;;;;4975305;28;20082;-55
2021/04/19 11:14:20;;;;;;;96.03;49.45;;;;;;;;;;4975081;28;20452;-55
2021/04/19 11:16:55;;;;;;;45.40;31.35;;;;;;;;;;4975602;28;20435;-57
2021/04/19 11:19:28;;;;;;;82.50;49.42;;;;;;;;;;4957905;28;20037;-57
2021/04/19 11:21:54;;;;;;;83.30;49.80;;;;;;;;;;4975041;28;20106;-56
2021/04/19 11:24:20;;;;;;;97.15;53.35;;;;;;;;;;4969491;28;20023;-55
2021/04/19 11:26:48;;;;;;;62.85;37.42;;;;;;;;;;4975077;28;20391;-56
2021/04/19 11:29:33;;;;;;;40.58;27.25;;;;;;;;;;4975030;28;20027;-56
2021/04/19 11:32:00;;;;;;;41.60;29.20;;;;;;;;;;4975208;28;20023;-55
2021/04/19 11:34:34;;;;;;;46.35;32.40;;;;;;;;;;4975116;28;20030;-54
2021/04/19 11:37:00;;;;;;;40.00;27.88;;;;;;;;;;4974756;28;20352;-56
2021/04/19 11:39:26;;;;;;;43.10;27.65;;;;;;;;;;4947115;28;20112;-56
2021/04/19 11:41:53;;;;;;;35.63;23.60;;;;;;;;;;4943221;28;20109;-55
2021/04/19 11:44:19;;;;;;;45.20;31.75;;;;;;;;;;4943067;28;20070;-53
2021/04/19 11:46:47;;;;;;;34.33;24.88;;;;;;;;;;4943094;28;20023;-51
2021/04/19 11:49:17;;;;;;;66.72;41.35;;;;;;;;;;4943065;28;20093;-58
2021/04/19 11:51:43;;;;;;;47.83;31.38;;;;;;;;;;4942812;28;20041;-58
2021/04/19 11:54:10;;;;;;;36.15;25.30;;;;;;;;;;4942994;28;20113;-56
2021/04/19 11:56:36;;;;;;;52.78;33.33;;;;;;;;;;4943280;28;20042;-54
2021/04/19 11:59:02;;;;;;;53.60;33.50;;;;;;;;;;4942706;28;20895;-53
2021/04/19 12:01:28;;;;;;;57.50;36.20;;;;;;;;;;4942931;28;20039;-55
2021/04/19 12:03:55;;;;;;;75.00;47.38;;;;;;;;;;4943819;28;20011;-54
2021/04/19 12:06:22;;;;;;;70.82;43.28;;;;;;;;;;4943158;28;20023;-58
2021/04/19 12:08:49;;;;;;;50.47;31.85;;;;;;;;;;4943355;28;20319;-54
2021/04/19 12:11:17;;;;;;;64.82;39.67;;;;;;;;;;4942367;28;20069;-56
2021/04/19 12:13:44;;;;;;;54.20;32.85;;;;;;;;;;4943471;28;20035;-55
2021/04/19 12:16:12;;;;;;;44.60;28.15;;;;;;;;;;4942456;28;21130;-55
2021/04/19 12:18:39;;;;;;;37.13;23.40;;;;;;;;;;4943314;28;20145;-53
2021/04/19 12:21:05;;;;;;;32.55;21.08;;;;;;;;;;4942158;28;20031;-56
2021/04/19 12:23:32;;;;;;;29.38;19.10;;;;;;;;;;4942497;28;20031;-51
2021/04/19 12:25:58;;;;;;;40.33;23.63;;;;;;;;;;4942331;28;20022;-54
2021/04/19 12:28:25;;;;;;;83.60;47.65;;;;;;;;;;4926087;28;21062;-55
2021/04/19 12:30:52;;;;;;;86.82;38.83;;;;;;;;;;4942802;28;20027;-57
2021/04/19 12:33:18;;;;;;;79.03;44.95;;;;;;;;;;4942887;28;20037;-53
2021/04/19 12:35:44;;;;;;;83.93;44.50;;;;;;;;;;4943321;28;20039;-56
2021/04/19 12:38:11;;;;;;;41.40;23.35;;;;;;;;;;4943346;28;20782;-56
2021/04/19 12:40:38;;;;;;;22.88;14.35;;;;;;;;;;4944106;28;20027;-55
2021/04/19 12:43:04;;;;;;;30.27;18.33;;;;;;;;;;4943213;28;20038;-57
2021/04/19 12:45:34;;;;;;;82.68;44.67;;;;;;;;;;4942938;28;20039;-54
2021/04/19 12:48:03;;;;;;;55.95;28.27;;;;;;;;;;4943067;28;20034;-57
2021/04/19 12:50:29;;;;;;;43.22;20.48;;;;;;;;;;4943750;28;20587;-55
2021/04/19 12:52:59;;;;;;;60.65;24.92;;;;;;;;;;4943353;28;20721;-56
2021/04/19 12:55:26;;;;;;;23.60;13.10;;;;;;;;;;4942636;28;20042;-58
2021/04/19 12:57:52;;;;;;;34.13;19.05;;;;;;;;;;4942796;28;20027;-56
2021/04/19 13:00:18;;;;;;;57.28;35.83;;;;;;;;;;4945007;28;20865;-55
2021/04/19 13:02:48;;;;;;;42.22;26.30;;;;;;;;;;4946567;28;20023;-57
2021/04/19 13:05:17;;;;;;;35.47;19.48;;;;;;;;;;4946745;28;20023;-57
2021/04/19 13:07:48;;;;;;;43.88;27.42;;;;;;;;;;4946108;28;20031;-56
2021/04/19 13:10:14;;;;;;;68.85;42.65;;;;;;;;;;4945807;28;20089;-55
2021/04/19 13:12:40;;;;;;;72.32;42.35;;;;;;;;;;4933325;28;20406;-55
2021/04/19 13:15:08;;;;;;;47.50;29.95;;;;;;;;;;4945632;28;20462;-54
2021/04/19 13:17:34;;;;;;;62.08;33.40;;;;;;;;;;4932565;28;20034;-57
2021/04/19 13:20:02;;;;;;;50.13;30.23;;;;;;;;;;4946408;28;21672;-56
2021/04/19 13:22:28;;;;;;;25.70;15.68;;;;;;;;;;4946928;28;20031;-53
2021/04/19 13:24:54;;;;;;;28.40;16.70;;;;;;;;;;4944706;28;20202;-54
2021/04/19 13:27:20;;;;;;;21.40;13.30;;;;;;;;;;4946124;28;21225;-56
2021/04/19 13:29:48;;;;;;;24.73;17.02;;;;;;;;;;4945578;28;20031;-55
2021/04/19 13:32:14;;;;;;;25.13;16.83;;;;;;;;;;4945787;28;20027;-56
2021/04/19 13:34:40;;;;;;;19.67;13.85;;;;;;;;;;4946370;28;20039;-55
2021/04/19 13:37:06;;;;;;;20.35;14.65;;;;;;;;;;4945865;28;20041;-57
2021/04/19 13:39:32;;;;;;;42.83;26.55;;;;;;;;;;4945993;28;20432;-56
2021/04/19 13:41:58;;;;;;;35.17;20.42;;;;;;;;;;4945333;28;20022;-56
2021/04/19 13:44:25;;;;;;;44.55;22.65;;;;;;;;;;4945155;28;20071;-56
2021/04/19 13:46:51;;;;;;;47.38;26.50;;;;;;;;;;4945739;28;20121;-56
2021/04/19 13:49:18;;;;;;;70.40;44.53;;;;;;;;;;4946098;28;20090;-57
2021/04/19 13:51:44;;;;;;;32.05;21.45;;;;;;;;;;4945554;28;21631;-55
2021/04/19 13:54:10;;;;;;;31.90;19.83;;;;;;;;;;4945375;28;20028;-55
2021/04/19 13:56:36;;;;;;;21.40;15.23;;;;;;;;;;4945761;28;20892;-56
2021/04/19 13:59:03;;;;;;;25.33;17.45;;;;;;;;;;4945285;28;21616;-57
2021/04/19 14:01:30;;;;;;;29.73;18.20;;;;;;;;;;4932113;28;20248;-55
2021/04/19 14:03:59;;;;;;;46.70;25.08;;;;;;;;;;4945106;28;20161;-56
2021/04/19 14:06:25;;;;;;;37.03;21.33;;;;;;;;;;4945592;28;20051;-57
2021/04/19 14:08:51;;;;;;;25.38;18.85;;;;;;;;;;4945345;28;20030;-57
2021/04/19 14:11:18;;;;;;;27.17;17.92;;;;;;;;;;4944580;28;20031;-56
2021/04/19 14:13:44;;;;;;;28.30;20.05;;;;;;;;;;4945121;28;20035;-57
2021/04/19 14:16:10;;;;;;;46.53;29.05;;;;;;;;;;4944359;28;20055;-56
2021/04/19 14:18:39;;;;;;;37.60;23.50;;;;;;;;;;4945140;28;20033;-55
2021/04/19 14:21:08;;;;;;;30.38;20.55;;;;;;;;;;4945105;28;20023;-57